sensor_id;sensor_type;location;lat;lon;timestamp;pressure;altitude;pressure_sealevel;temperature;humidity
3102;BME280;1561;42.666;23.392;2024-03-08T00:01:20;95196.47;;;6.16;100.00
3102;BME280;1561;42.666;23.392;2024-03-08T00:03:55;95190.28;;;6.07;100.00
3102;BME280;1561;42.666;23.392;2024-03-08T00:06:30;95194.53;;;6.07;100.00
3102;BME280;1561;42.666;23.392;2024-03-08T00:09:01;95168.72;;;5.88;100.00
3102;BME280;1561;42.666;23.392;2024-03-08T00:11:38;95195.41;;;5.93;100.00
3102;BME280;1561;42.666;23.392;2024-03-08T00:14:08;95190.34;;;5.93;100.00
3102;BME280;1561;42.666;23.392;2024-03-08T00:16:38;95191.63;;;5.86;100.00
3102;BME280;1561;42.666;23.392;2024-03-08T00:19:10;95185.66;;;5.73;100.00
3102;BME280;1561;42.666;23.392;2024-03-08T00:21:58;95189.09;;;5.86;100.00
3102;BME280;1561;42.666;23.392;2024-03-08T00:24:26;95176.75;;;5.68;100.00
3102;BME280;1561;42.666;23.392;2024-03-08T00:26:57;95180.69;;;5.72;100.00
3102;BME280;1561;42.666;23.392;2024-03-08T00:29:28;95178.97;;;5.72;100.00
3102;BME280;1561;42.666;23.392;2024-03-08T00:32:05;95183.97;;;5.74;100.00
3102;BME280;1561;42.666;23.392;2024-03-08T00:34:56;95185.66;;;5.87;100.00
3102;BME280;1561;42.666;23.392;2024-03-08T00:37:25;95108.19;;;5.30;100.00
3102;BME280;1561;42.666;23.392;2024-03-08T00:39:58;95168.44;;;5.78;100.00
3102;BME280;1561;42.666;23.392;2024-03-08T00:42:36;95102.84;;;5.35;100.00
3102;BME280;1561;42.666;23.392;2024-03-08T00:45:09;95173.38;;;5.81;100.00
3102;BME280;1561;42.666;23.392;2024-03-08T00:47:42;95161.94;;;5.88;100.00
3102;BME280;1561;42.666;23.392;2024-03-08T00:50:13;95159.28;;;5.63;100.00
3102;BME280;1561;42.666;23.392;2024-03-08T00:52:41;95093.47;;;5.23;100.00
3102;BME280;1561;42.666;23.392;2024-03-08T00:55:24;95157.25;;;5.82;100.00
3102;BME280;1561;42.666;23.392;2024-03-08T00:57:56;95150.94;;;5.75;100.00
3102;BME280;1561;42.666;23.392;2024-03-08T01:00:24;95156.38;;;5.83;100.00
3102;BME280;1561;42.666;23.392;2024-03-08T01:02:58;95148.34;;;5.89;100.00
3102;BME280;1561;42.666;23.392;2024-03-08T01:05:30;95138.22;;;5.89;100.00
3102;BME280;1561;42.666;23.392;2024-03-08T01:07:59;95128.56;;;5.82;100.00
3102;BME280;1561;42.666;23.392;2024-03-08T01:10:38;95137.13;;;5.93;100.00
3102;BME280;1561;42.666;23.392;2024-03-08T01:13:10;95141.19;;;5.96;100.00
3102;BME280;1561;42.666;23.392;2024-03-08T01:15:48;95142.88;;;5.83;100.00
3102;BME280;1561;42.666;23.392;2024-03-08T01:18:22;95134.47;;;5.68;100.00
3102;BME280;1561;42.666;23.392;2024-03-08T01:20:55;95076.16;;;5.43;100.00
3102;BME280;1561;42.666;23.392;2024-03-08T01:23:25;95135.91;;;5.72;100.00
3102;BME280;1561;42.666;23.392;2024-03-08T01:25:55;95141.72;;;5.74;100.00
3102;BME280;1561;42.666;23.392;2024-03-08T01:28:24;95132.09;;;5.79;100.00
3102;BME280;1561;42.666;23.392;2024-03-08T01:30:53;95126.03;;;5.82;100.00
3102;BME280;1561;42.666;23.392;2024-03-08T01:33:27;95129.50;;;5.81;100.00
3102;BME280;1561;42.666;23.392;2024-03-08T01:35:57;95106.28;;;5.87;100.00
3102;BME280;1561;42.666;23.392;2024-03-08T01:38:26;95119.22;;;5.82;100.00
3102;BME280;1561;42.666;23.392;2024-03-08T01:40:55;95077.00;;;5.69;100.00
3102;BME280;1561;42.666;23.392;2024-03-08T01:43:27;95123.66;;;5.79;100.00
3102;BME280;1561;42.666;23.392;2024-03-08T01:45:57;95036.38;;;5.05;100.00
3102;BME280;1561;42.666;23.392;2024-03-08T01:48:28;95133.56;;;5.69;100.00
3102;BME280;1561;42.666;23.392;2024-03-08T01:51:12;95065.88;;;5.45;100.00
3102;BME280;1561;42.666;23.392;2024-03-08T01:53:43;95050.66;;;5.59;100.00
3102;BME280;1561;42.666;23.392;2024-03-08T01:56:26;95114.72;;;6.00;100.00
3102;BME280;1561;42.666;23.392;2024-03-08T01:58:59;95113.84;;;6.26;100.00
3102;BME280;1561;42.666;23.392;2024-03-08T02:01:28;95125.19;;;6.20;100.00
3102;BME280;1561;42.666;23.392;2024-03-08T02:04:06;95103.56;;;5.76;100.00
3102;BME280;1561;42.666;23.392;2024-03-08T02:06:33;95122.91;;;5.91;100.00
3102;BME280;1561;42.666;23.392;2024-03-08T02:09:10;95130.41;;;5.66;100.00
3102;BME280;1561;42.666;23.392;2024-03-08T02:11:48;95128.88;;;5.63;100.00
3102;BME280;1561;42.666;23.392;2024-03-08T02:14:17;95116.09;;;5.52;100.00
3102;BME280;1561;42.666;23.392;2024-03-08T02:17:00;95054.72;;;5.35;100.00
3102;BME280;1561;42.666;23.392;2024-03-08T02:19:54;95122.69;;;5.81;100.00
3102;BME280;1561;42.666;23.392;2024-03-08T02:22:29;95122.00;;;6.04;100.00
3102;BME280;1561;42.666;23.392;2024-03-08T02:25:03;95066.63;;;5.86;100.00
3102;BME280;1561;42.666;23.392;2024-03-08T02:27:31;95128.19;;;6.00;100.00
3102;BME280;1561;42.666;23.392;2024-03-08T02:30:05;95123.44;;;6.08;100.00
3102;BME280;1561;42.666;23.392;2024-03-08T02:32:37;95125.19;;;6.08;100.00
3102;BME280;1561;42.666;23.392;2024-03-08T02:35:15;95135.59;;;6.03;100.00
3102;BME280;1561;42.666;23.392;2024-03-08T02:37:45;95144.97;;;6.15;100.00
3102;BME280;1561;42.666;23.392;2024-03-08T02:40:14;95150.16;;;6.26;100.00
3102;BME280;1561;42.666;23.392;2024-03-08T02:42:50;95148.13;;;6.31;100.00
3102;BME280;1561;42.666;23.392;2024-03-08T02:45:28;95139.47;;;5.96;100.00
3102;BME280;1561;42.666;23.392;2024-03-08T02:47:59;95153.53;;;6.00;100.00
3102;BME280;1561;42.666;23.392;2024-03-08T02:50:27;95158.09;;;5.95;100.00
3102;BME280;1561;42.666;23.392;2024-03-08T02:52:59;95163.56;;;5.89;100.00
3102;BME280;1561;42.666;23.392;2024-03-08T02:55:34;95095.06;;;5.38;100.00
3102;BME280;1561;42.666;23.392;2024-03-08T02:58:07;95172.28;;;5.85;100.00
3102;BME280;1561;42.666;23.392;2024-03-08T03:00:41;95168.63;;;5.89;100.00
3102;BME280;1561;42.666;23.392;2024-03-08T03:03:12;95149.88;;;5.65;100.00
3102;BME280;1561;42.666;23.392;2024-03-08T03:05:45;95171.19;;;5.75;100.00
3102;BME280;1561;42.666;23.392;2024-03-08T03:08:19;95170.56;;;5.86;100.00
3102;BME280;1561;42.666;23.392;2024-03-08T03:10:53;95172.38;;;5.84;100.00
3102;BME280;1561;42.666;23.392;2024-03-08T03:13:32;95174.75;;;5.73;100.00
3102;BME280;1561;42.666;23.392;2024-03-08T03:16:03;95179.81;;;5.73;100.00
3102;BME280;1561;42.666;23.392;2024-03-08T03:18:36;95180.59;;;5.73;100.00
3102;BME280;1561;42.666;23.392;2024-03-08T03:21:09;95173.09;;;5.86;100.00
3102;BME280;1561;42.666;23.392;2024-03-08T03:23:46;95182.22;;;5.88;100.00
3102;BME280;1561;42.666;23.392;2024-03-08T03:26:17;95189.13;;;5.72;100.00
3102;BME280;1561;42.666;23.392;2024-03-08T03:28:45;95201.78;;;5.86;100.00
3102;BME280;1561;42.666;23.392;2024-03-08T03:31:14;95196.09;;;5.83;100.00
3102;BME280;1561;42.666;23.392;2024-03-08T03:33:42;95202.72;;;5.71;100.00
3102;BME280;1561;42.666;23.392;2024-03-08T03:36:11;95213.31;;;5.50;100.00
3102;BME280;1561;42.666;23.392;2024-03-08T03:41:37;95206.25;;;5.69;100.00
3102;BME280;1561;42.666;23.392;2024-03-08T03:44:09;95209.00;;;5.78;100.00
3102;BME280;1561;42.666;23.392;2024-03-08T03:46:49;95205.56;;;5.93;100.00
3102;BME280;1561;42.666;23.392;2024-03-08T03:49:17;95221.69;;;5.92;100.00
3102;BME280;1561;42.666;23.392;2024-03-08T03:51:46;95218.16;;;5.95;100.00
3102;BME280;1561;42.666;23.392;2024-03-08T03:54:20;95223.31;;;5.79;100.00
3102;BME280;1561;42.666;23.392;2024-03-08T03:56:53;95226.59;;;5.81;100.00
3102;BME280;1561;42.666;23.392;2024-03-08T03:59:26;95229.13;;;5.67;100.00
3102;BME280;1561;42.666;23.392;2024-03-08T04:01:59;95218.94;;;5.41;100.00
3102;BME280;1561;42.666;23.392;2024-03-08T04:04:31;95223.69;;;5.33;100.00
3102;BME280;1561;42.666;23.392;2024-03-08T04:06:59;95234.38;;;5.64;100.00
3102;BME280;1561;42.666;23.392;2024-03-08T04:09:28;95235.69;;;5.57;100.00
3102;BME280;1561;42.666;23.392;2024-03-08T04:12:10;95231.38;;;5.72;100.00
3102;BME280;1561;42.666;23.392;2024-03-08T04:14:42;95240.00;;;5.83;100.00
3102;BME280;1561;42.666;23.392;2024-03-08T04:17:17;95234.47;;;5.63;100.00
3102;BME280;1561;42.666;23.392;2024-03-08T04:19:50;95239.31;;;5.94;100.00
3102;BME280;1561;42.666;23.392;2024-03-08T04:22:20;95247.72;;;5.40;100.00
3102;BME280;1561;42.666;23.392;2024-03-08T04:24:51;95244.16;;;5.56;100.00
3102;BME280;1561;42.666;23.392;2024-03-08T04:27:38;95250.19;;;5.27;100.00
3102;BME280;1561;42.666;23.392;2024-03-08T04:30:08;95248.16;;;5.60;100.00
3102;BME280;1561;42.666;23.392;2024-03-08T04:32:50;95241.72;;;5.69;100.00
3102;BME280;1561;42.666;23.392;2024-03-08T04:35:19;95256.31;;;5.65;100.00
3102;BME280;1561;42.666;23.392;2024-03-08T04:37:50;95265.53;;;5.66;100.00
3102;BME280;1561;42.666;23.392;2024-03-08T04:40:23;95262.56;;;5.46;100.00
3102;BME280;1561;42.666;23.392;2024-03-08T04:42:54;95259.28;;;5.58;100.00
3102;BME280;1561;42.666;23.392;2024-03-08T04:45:27;95273.69;;;5.57;100.00
3102;BME280;1561;42.666;23.392;2024-03-08T04:47:59;95269.50;;;5.56;100.00
3102;BME280;1561;42.666;23.392;2024-03-08T04:50:32;95271.50;;;5.65;100.00
3102;BME280;1561;42.666;23.392;2024-03-08T04:56:30;95266.44;;;5.65;100.00
3102;BME280;1561;42.666;23.392;2024-03-08T04:59:05;95276.13;;;5.59;100.00
3102;BME280;1561;42.666;23.392;2024-03-08T05:01:36;95277.22;;;5.55;100.00
3102;BME280;1561;42.666;23.392;2024-03-08T05:04:10;95276.47;;;5.53;100.00
3102;BME280;1561;42.666;23.392;2024-03-08T05:06:39;95283.75;;;5.59;100.00
3102;BME280;1561;42.666;23.392;2024-03-08T05:09:11;95277.19;;;5.83;100.00
3102;BME280;1561;42.666;23.392;2024-03-08T05:11:44;95279.81;;;5.67;100.00
3102;BME280;1561;42.666;23.392;2024-03-08T05:14:30;95293.53;;;5.37;100.00
3102;BME280;1561;42.666;23.392;2024-03-08T05:17:02;95197.31;;;4.67;100.00
3102;BME280;1561;42.666;23.392;2024-03-08T05:19:32;95290.34;;;5.19;100.00
3102;BME280;1561;42.666;23.392;2024-03-08T05:22:00;95285.34;;;5.18;100.00
3102;BME280;1561;42.666;23.392;2024-03-08T05:24:34;95293.16;;;5.15;100.00
3102;BME280;1561;42.666;23.392;2024-03-08T05:27:02;95286.88;;;5.06;100.00
3102;BME280;1561;42.666;23.392;2024-03-08T05:29:45;95300.38;;;5.21;100.00
3102;BME280;1561;42.666;23.392;2024-03-08T05:32:22;95301.16;;;5.07;100.00
3102;BME280;1561;42.666;23.392;2024-03-08T05:34:50;95297.09;;;5.05;100.00
3102;BME280;1561;42.666;23.392;2024-03-08T05:37:17;95246.25;;;4.66;100.00
3102;BME280;1561;42.666;23.392;2024-03-08T05:39:45;95314.81;;;5.05;100.00
3102;BME280;1561;42.666;23.392;2024-03-08T05:42:16;95313.66;;;4.96;100.00
3102;BME280;1561;42.666;23.392;2024-03-08T05:44:48;95301.41;;;4.75;100.00
3102;BME280;1561;42.666;23.392;2024-03-08T05:47:17;95308.34;;;4.71;100.00
3102;BME280;1561;42.666;23.392;2024-03-08T05:49:45;95254.94;;;4.32;100.00
3102;BME280;1561;42.666;23.392;2024-03-08T05:52:12;95324.44;;;4.70;100.00
3102;BME280;1561;42.666;23.392;2024-03-08T05:54:41;95324.72;;;4.80;100.00
3102;BME280;1561;42.666;23.392;2024-03-08T05:57:09;95322.22;;;4.80;100.00
3102;BME280;1561;42.666;23.392;2024-03-08T05:59:39;95319.13;;;4.75;100.00
3102;BME280;1561;42.666;23.392;2024-03-08T06:02:08;95331.13;;;4.85;100.00
3102;BME280;1561;42.666;23.392;2024-03-08T06:04:38;95333.63;;;5.01;100.00
3102;BME280;1561;42.666;23.392;2024-03-08T06:07:09;95346.22;;;4.73;100.00
3102;BME280;1561;42.666;23.392;2024-03-08T06:09:38;95340.03;;;4.92;100.00
3102;BME280;1561;42.666;23.392;2024-03-08T06:12:10;95350.63;;;4.99;100.00
3102;BME280;1561;42.666;23.392;2024-03-08T06:14:44;95351.63;;;4.96;100.00
3102;BME280;1561;42.666;23.392;2024-03-08T06:17:14;95341.25;;;4.85;100.00
3102;BME280;1561;42.666;23.392;2024-03-08T06:19:44;95356.22;;;5.04;100.00
3102;BME280;1561;42.666;23.392;2024-03-08T06:22:12;95347.47;;;5.09;100.00
3102;BME280;1561;42.666;23.392;2024-03-08T06:24:40;95356.25;;;5.18;100.00
3102;BME280;1561;42.666;23.392;2024-03-08T06:27:09;95374.19;;;5.29;100.00
3102;BME280;1561;42.666;23.392;2024-03-08T06:29:39;95360.63;;;5.44;100.00
3102;BME280;1561;42.666;23.392;2024-03-08T06:32:08;95361.28;;;5.61;100.00
3102;BME280;1561;42.666;23.392;2024-03-08T06:35:09;95356.63;;;5.26;100.00
3102;BME280;1561;42.666;23.392;2024-03-08T06:38:11;95368.81;;;5.91;100.00
3102;BME280;1561;42.666;23.392;2024-03-08T06:41:06;95369.59;;;5.63;100.00
3102;BME280;1561;42.666;23.392;2024-03-08T06:43:47;95379.81;;;5.76;100.00
3102;BME280;1561;42.666;23.392;2024-03-08T06:46:18;95373.97;;;5.89;100.00
3102;BME280;1561;42.666;23.392;2024-03-08T06:49:07;95378.63;;;6.23;100.00
3102;BME280;1561;42.666;23.392;2024-03-08T06:55:00;95345.66;;;6.09;100.00
3102;BME280;1561;42.666;23.392;2024-03-08T06:57:55;95388.88;;;6.22;100.00
3102;BME280;1561;42.666;23.392;2024-03-08T07:00:27;95391.38;;;6.36;100.00
3102;BME280;1561;42.666;23.392;2024-03-08T07:03:00;95395.97;;;6.43;100.00
3102;BME280;1561;42.666;23.392;2024-03-08T07:05:27;95393.38;;;6.84;100.00
3102;BME280;1561;42.666;23.392;2024-03-08T07:08:00;95400.66;;;7.02;100.00
3102;BME280;1561;42.666;23.392;2024-03-08T07:10:42;95335.50;;;5.55;100.00
3102;BME280;1561;42.666;23.392;2024-03-08T07:13:26;95393.69;;;5.98;100.00
3102;BME280;1561;42.666;23.392;2024-03-08T07:15:57;95415.28;;;6.32;100.00
3102;BME280;1561;42.666;23.392;2024-03-08T07:18:29;95328.16;;;5.50;100.00
3102;BME280;1561;42.666;23.392;2024-03-08T07:20:59;95405.88;;;6.60;100.00
3102;BME280;1561;42.666;23.392;2024-03-08T07:23:37;95399.38;;;6.56;100.00
3102;BME280;1561;42.666;23.392;2024-03-08T07:26:50;95414.28;;;6.34;100.00
3102;BME280;1561;42.666;23.392;2024-03-08T07:29:20;95415.16;;;5.93;100.00
3102;BME280;1561;42.666;23.392;2024-03-08T07:31:48;95404.09;;;6.08;100.00
3102;BME280;1561;42.666;23.392;2024-03-08T07:34:32;95412.53;;;6.49;100.00
3102;BME280;1561;42.666;23.392;2024-03-08T07:37:01;95407.88;;;7.08;100.00
3102;BME280;1561;42.666;23.392;2024-03-08T07:39:49;95411.88;;;7.25;100.00
3102;BME280;1561;42.666;23.392;2024-03-08T07:45:33;95416.63;;;7.17;100.00
3102;BME280;1561;42.666;23.392;2024-03-08T07:48:02;95419.72;;;7.34;100.00
3102;BME280;1561;42.666;23.392;2024-03-08T07:50:36;95413.22;;;7.30;100.00
3102;BME280;1561;42.666;23.392;2024-03-08T07:53:16;95423.78;;;7.37;100.00
3102;BME280;1561;42.666;23.392;2024-03-08T07:55:45;95367.47;;;7.68;100.00
3102;BME280;1561;42.666;23.392;2024-03-08T07:58:13;95412.41;;;8.05;100.00
3102;BME280;1561;42.666;23.392;2024-03-08T08:00:59;95405.38;;;8.08;100.00
3102;BME280;1561;42.666;23.392;2024-03-08T08:03:28;95294.66;;;7.54;100.00
3102;BME280;1561;42.666;23.392;2024-03-08T08:05:57;95420.56;;;7.85;100.00
3102;BME280;1561;42.666;23.392;2024-03-08T08:08:28;95413.75;;;7.98;100.00
3102;BME280;1561;42.666;23.392;2024-03-08T08:10:58;95423.00;;;7.86;100.00
3102;BME280;1561;42.666;23.392;2024-03-08T08:13:34;95424.00;;;7.46;100.00
3102;BME280;1561;42.666;23.392;2024-03-08T08:16:04;95419.63;;;7.61;100.00
3102;BME280;1561;42.666;23.392;2024-03-08T08:18:33;95416.47;;;7.45;100.00
3102;BME280;1561;42.666;23.392;2024-03-08T08:21:01;95412.94;;;7.60;100.00
3102;BME280;1561;42.666;23.392;2024-03-08T08:23:29;95408.16;;;7.93;100.00
3102;BME280;1561;42.666;23.392;2024-03-08T08:25:57;95413.03;;;7.71;100.00
3102;BME280;1561;42.666;23.392;2024-03-08T08:28:28;95420.88;;;7.68;100.00
3102;BME280;1561;42.666;23.392;2024-03-08T08:31:10;95416.81;;;8.51;100.00
3102;BME280;1561;42.666;23.392;2024-03-08T08:33:38;95358.03;;;9.02;100.00
3102;BME280;1561;42.666;23.392;2024-03-08T08:36:07;95417.25;;;9.16;100.00
3102;BME280;1561;42.666;23.392;2024-03-08T08:38:40;95395.03;;;9.75;100.00
3102;BME280;1561;42.666;23.392;2024-03-08T08:41:09;95420.59;;;10.52;100.00
3102;BME280;1561;42.666;23.392;2024-03-08T08:43:40;95411.19;;;10.52;100.00
3102;BME280;1561;42.666;23.392;2024-03-08T08:46:18;95409.69;;;10.92;100.00
3102;BME280;1561;42.666;23.392;2024-03-08T08:48:48;95400.44;;;12.44;100.00
3102;BME280;1561;42.666;23.392;2024-03-08T08:51:17;95396.09;;;12.35;100.00
3102;BME280;1561;42.666;23.392;2024-03-08T08:53:53;95408.00;;;10.71;100.00
3102;BME280;1561;42.666;23.392;2024-03-08T08:56:22;95339.75;;;10.62;100.00
3102;BME280;1561;42.666;23.392;2024-03-08T08:58:51;95395.09;;;11.97;100.00
3102;BME280;1561;42.666;23.392;2024-03-08T09:01:30;95375.22;;;13.08;100.00
3102;BME280;1561;42.666;23.392;2024-03-08T09:03:59;95395.50;;;11.92;100.00
3102;BME280;1561;42.666;23.392;2024-03-08T09:06:29;95390.66;;;12.78;100.00
3102;BME280;1561;42.666;23.392;2024-03-08T09:09:01;95388.78;;;13.75;95.98
3102;BME280;1561;42.666;23.392;2024-03-08T09:11:33;95396.97;;;12.64;92.54
3102;BME280;1561;42.666;23.392;2024-03-08T09:14:05;95388.63;;;12.81;99.27
3102;BME280;1561;42.666;23.392;2024-03-08T09:16:36;95377.44;;;15.12;78.53
3102;BME280;1561;42.666;23.392;2024-03-08T09:19:07;95382.19;;;13.63;76.82
3102;BME280;1561;42.666;23.392;2024-03-08T09:21:44;95382.81;;;15.19;66.51
3102;BME280;1561;42.666;23.392;2024-03-08T09:24:20;95257.91;;;13.10;83.97
3102;BME280;1561;42.666;23.392;2024-03-08T09:26:51;95390.69;;;12.29;97.73
3102;BME280;1561;42.666;23.392;2024-03-08T09:29:25;95397.19;;;10.78;100.00
3102;BME280;1561;42.666;23.392;2024-03-08T09:32:00;95387.16;;;11.70;100.00
3102;BME280;1561;42.666;23.392;2024-03-08T09:34:44;95405.47;;;9.94;100.00
3102;BME280;1561;42.666;23.392;2024-03-08T09:37:14;95388.13;;;12.38;100.00
3102;BME280;1561;42.666;23.392;2024-03-08T09:39:44;95396.59;;;11.38;100.00
3102;BME280;1561;42.666;23.392;2024-03-08T09:42:12;95401.09;;;10.07;100.00
3102;BME280;1561;42.666;23.392;2024-03-08T09:44:44;95394.94;;;10.42;100.00
3102;BME280;1561;42.666;23.392;2024-03-08T09:47:15;95365.78;;;10.98;100.00
3102;BME280;1561;42.666;23.392;2024-03-08T09:49:44;95392.63;;;11.86;100.00
3102;BME280;1561;42.666;23.392;2024-03-08T09:52:12;95379.84;;;12.16;100.00
3102;BME280;1561;42.666;23.392;2024-03-08T09:54:43;95391.53;;;12.09;100.00
3102;BME280;1561;42.666;23.392;2024-03-08T09:57:13;95377.34;;;12.35;99.01
3102;BME280;1561;42.666;23.392;2024-03-08T09:59:42;95371.41;;;11.54;100.00
3102;BME280;1561;42.666;23.392;2024-03-08T10:02:16;95392.41;;;11.98;100.00
3102;BME280;1561;42.666;23.392;2024-03-08T10:04:44;95385.28;;;11.51;100.00
3102;BME280;1561;42.666;23.392;2024-03-08T10:07:29;95387.56;;;11.34;100.00
3102;BME280;1561;42.666;23.392;2024-03-08T10:09:59;95390.81;;;11.56;100.00
3102;BME280;1561;42.666;23.392;2024-03-08T10:12:29;95391.41;;;10.76;100.00
3102;BME280;1561;42.666;23.392;2024-03-08T10:14:59;95398.69;;;10.05;100.00
3102;BME280;1561;42.666;23.392;2024-03-08T10:17:44;95391.44;;;9.77;100.00
3102;BME280;1561;42.666;23.392;2024-03-08T10:20:17;95401.06;;;9.74;100.00
3102;BME280;1561;42.666;23.392;2024-03-08T10:22:51;95374.75;;;9.84;100.00
3102;BME280;1561;42.666;23.392;2024-03-08T10:25:29;95383.28;;;11.75;100.00
3102;BME280;1561;42.666;23.392;2024-03-08T10:27:58;95376.16;;;13.91;93.62
3102;BME280;1561;42.666;23.392;2024-03-08T10:30:27;95367.34;;;16.30;66.96
3102;BME280;1561;42.666;23.392;2024-03-08T10:32:58;95367.84;;;17.57;59.36
3102;BME280;1561;42.666;23.392;2024-03-08T10:35:32;95373.78;;;16.52;60.11
3102;BME280;1561;42.666;23.392;2024-03-08T10:38:02;95365.22;;;16.52;59.65
3102;BME280;1561;42.666;23.392;2024-03-08T10:40:33;95370.34;;;13.98;73.45
3102;BME280;1561;42.666;23.392;2024-03-08T10:43:18;95368.88;;;14.32;73.05
3102;BME280;1561;42.666;23.392;2024-03-08T10:45:52;95293.56;;;14.49;71.66
3102;BME280;1561;42.666;23.392;2024-03-08T10:48:29;95374.72;;;11.24;90.17
3102;BME280;1561;42.666;23.392;2024-03-08T10:50:59;95361.94;;;12.84;96.24
3102;BME280;1561;42.666;23.392;2024-03-08T10:53:36;95357.31;;;15.08;71.01
3102;BME280;1561;42.666;23.392;2024-03-08T10:56:09;95361.44;;;12.31;85.96
3102;BME280;1561;42.666;23.392;2024-03-08T10:58:41;95358.28;;;12.77;85.49
3102;BME280;1561;42.666;23.392;2024-03-08T11:01:16;95343.03;;;11.77;97.07
3102;BME280;1561;42.666;23.392;2024-03-08T11:03:50;95359.69;;;11.72;100.00
3102;BME280;1561;42.666;23.392;2024-03-08T11:06:23;95359.41;;;10.93;100.00
3102;BME280;1561;42.666;23.392;2024-03-08T11:09:02;95356.44;;;11.29;100.00
3102;BME280;1561;42.666;23.392;2024-03-08T11:11:33;95344.09;;;11.34;100.00
3102;BME280;1561;42.666;23.392;2024-03-08T11:14:43;95345.47;;;12.28;100.00
3102;BME280;1561;42.666;23.392;2024-03-08T11:17:14;95342.09;;;12.86;97.05
3102;BME280;1561;42.666;23.392;2024-03-08T11:19:58;95338.84;;;12.84;93.58
3102;BME280;1561;42.666;23.392;2024-03-08T11:22:29;95345.72;;;12.55;90.62
3102;BME280;1561;42.666;23.392;2024-03-08T11:25:03;95335.72;;;13.66;87.26
3102;BME280;1561;42.666;23.392;2024-03-08T11:27:35;95324.41;;;14.49;75.78
3102;BME280;1561;42.666;23.392;2024-03-08T11:30:06;95322.66;;;15.55;67.43
3102;BME280;1561;42.666;23.392;2024-03-08T11:32:38;95319.81;;;15.40;65.14
3102;BME280;1561;42.666;23.392;2024-03-08T11:35:21;95328.38;;;13.80;68.04
3102;BME280;1561;42.666;23.392;2024-03-08T11:37:49;95326.03;;;12.74;77.20
3102;BME280;1561;42.666;23.392;2024-03-08T11:40:17;95286.88;;;12.25;82.73
3102;BME280;1561;42.666;23.392;2024-03-08T11:42:47;95326.78;;;12.46;84.50
3102;BME280;1561;42.666;23.392;2024-03-08T11:45:15;95325.97;;;11.97;89.12
3102;BME280;1561;42.666;23.392;2024-03-08T11:47:47;95282.28;;;10.67;100.00
3102;BME280;1561;42.666;23.392;2024-03-08T11:50:15;95316.69;;;11.04;100.00
3102;BME280;1561;42.666;23.392;2024-03-08T11:52:50;95297.38;;;12.31;98.23
3102;BME280;1561;42.666;23.392;2024-03-08T11:55:21;95314.72;;;13.24;89.68
3102;BME280;1561;42.666;23.392;2024-03-08T11:57:50;95270.50;;;13.86;77.09
3102;BME280;1561;42.666;23.392;2024-03-08T12:00:19;95321.25;;;14.38;71.31
3102;BME280;1561;42.666;23.392;2024-03-08T12:03:08;95322.94;;;13.18;78.25
3102;BME280;1561;42.666;23.392;2024-03-08T12:05:36;95253.31;;;14.40;68.82
3102;BME280;1561;42.666;23.392;2024-03-08T12:08:07;95317.06;;;14.54;71.74
3102;BME280;1561;42.666;23.392;2024-03-08T12:10:41;95320.50;;;12.79;79.90
3102;BME280;1561;42.666;23.392;2024-03-08T12:13:09;95312.50;;;12.44;91.74
3102;BME280;1561;42.666;23.392;2024-03-08T12:15:40;95309.44;;;12.88;87.23
3102;BME280;1561;42.666;23.392;2024-03-08T12:18:08;95326.47;;;13.36;78.54
3102;BME280;1561;42.666;23.392;2024-03-08T12:20:44;95317.03;;;11.82;95.94
3102;BME280;1561;42.666;23.392;2024-03-08T12:23:32;95315.09;;;11.03;100.00
3102;BME280;1561;42.666;23.392;2024-03-08T12:26:10;95319.13;;;11.26;100.00
3102;BME280;1561;42.666;23.392;2024-03-08T12:28:47;95315.53;;;11.79;100.00
3102;BME280;1561;42.666;23.392;2024-03-08T12:31:16;95316.59;;;12.07;99.46
3102;BME280;1561;42.666;23.392;2024-03-08T12:33:49;95319.13;;;10.85;100.00
3102;BME280;1561;42.666;23.392;2024-03-08T12:36:20;95313.16;;;10.22;100.00
3102;BME280;1561;42.666;23.392;2024-03-08T12:38:52;95302.72;;;10.88;100.00
3102;BME280;1561;42.666;23.392;2024-03-08T12:41:26;95305.91;;;10.80;100.00
3102;BME280;1561;42.666;23.392;2024-03-08T12:43:55;95303.88;;;10.63;100.00
3102;BME280;1561;42.666;23.392;2024-03-08T12:46:27;95300.63;;;10.93;100.00
3102;BME280;1561;42.666;23.392;2024-03-08T12:48:57;95299.88;;;11.22;100.00
3102;BME280;1561;42.666;23.392;2024-03-08T12:51:25;95296.19;;;10.95;100.00
3102;BME280;1561;42.666;23.392;2024-03-08T12:53:59;95299.13;;;10.59;100.00
3102;BME280;1561;42.666;23.392;2024-03-08T12:56:34;95299.22;;;10.89;100.00
3102;BME280;1561;42.666;23.392;2024-03-08T12:59:20;95294.47;;;10.32;100.00
3102;BME280;1561;42.666;23.392;2024-03-08T13:01:52;95286.25;;;11.42;100.00
3102;BME280;1561;42.666;23.392;2024-03-08T13:04:19;95291.28;;;11.53;100.00
3102;BME280;1561;42.666;23.392;2024-03-08T13:06:47;95218.00;;;11.43;92.16
3102;BME280;1561;42.666;23.392;2024-03-08T13:09:21;95283.09;;;11.80;94.35
3102;BME280;1561;42.666;23.392;2024-03-08T13:11:49;95296.69;;;11.30;96.28
3102;BME280;1561;42.666;23.392;2024-03-08T13:14:16;95287.56;;;11.37;96.78
3102;BME280;1561;42.666;23.392;2024-03-08T13:16:44;95297.81;;;11.37;98.37
3102;BME280;1561;42.666;23.392;2024-03-08T13:19:13;95297.63;;;10.88;97.69
3102;BME280;1561;42.666;23.392;2024-03-08T13:21:41;95301.84;;;11.39;98.38
3102;BME280;1561;42.666;23.392;2024-03-08T13:24:10;95294.69;;;10.92;99.09
3102;BME280;1561;42.666;23.392;2024-03-08T13:26:51;95302.22;;;10.73;100.00
3102;BME280;1561;42.666;23.392;2024-03-08T13:29:21;95301.72;;;10.79;100.00
3102;BME280;1561;42.666;23.392;2024-03-08T13:31:49;95292.13;;;10.40;100.00
3102;BME280;1561;42.666;23.392;2024-03-08T13:34:22;95292.00;;;10.94;98.32
3102;BME280;1561;42.666;23.392;2024-03-08T13:36:56;95286.47;;;10.89;100.00
3102;BME280;1561;42.666;23.392;2024-03-08T13:39:27;95276.66;;;10.94;100.00
3102;BME280;1561;42.666;23.392;2024-03-08T13:42:10;95267.94;;;10.96;100.00
3102;BME280;1561;42.666;23.392;2024-03-08T13:44:44;95272.44;;;11.24;95.83
3102;BME280;1561;42.666;23.392;2024-03-08T13:47:14;95285.06;;;11.26;95.95
3102;BME280;1561;42.666;23.392;2024-03-08T13:49:44;95293.22;;;10.58;100.00
3102;BME280;1561;42.666;23.392;2024-03-08T13:52:20;95290.19;;;11.05;100.00
3102;BME280;1561;42.666;23.392;2024-03-08T13:54:52;95293.66;;;10.63;100.00